Time;durP1;ratioP1;P1;durP2;ratioP2;P2;SDS_P1;SDS_P2;PMS_P1;PMS_P2;Temp;Humidity;BMP_temperature;BMP_pressure;BME280_temperature;BME280_humidity;BME280_pressure;Samples;Min_cycle;Max_cycle;Signal;HPM_P1;HPM_P2
2023/04/30 00:01:46;;;;;;;6.90;4.70;;;;;;;12.19;84.89;100226.38;5030754;28;20030;-70
2023/04/30 00:04:11;;;;;;;11.52;4.88;;;;;;;12.04;85.51;100225.13;5027875;28;20041;-71
2023/04/30 00:06:37;;;;;;;11.95;5.00;;;;;;;12.08;85.50;100226.09;5027748;28;20029;-72
2023/04/30 00:09:02;;;;;;;10.13;4.70;;;;;;;11.93;85.90;100190.28;5028104;28;20044;-72
2023/04/30 00:11:27;;;;;;;7.72;5.00;;;;;;;12.42;88.24;100226.97;5011501;28;20109;-71
2023/04/30 00:13:53;;;;;;;6.22;4.88;;;;;;;12.57;84.84;100227.38;5028143;28;20480;-68
2023/04/30 00:16:19;;;;;;;8.60;5.05;;;;;;;12.66;83.41;100216.34;5027984;28;20381;-68
2023/04/30 00:18:45;;;;;;;10.05;5.10;;;;;;;12.60;81.75;100213.59;5028005;28;20044;-71
2023/04/30 00:21:10;;;;;;;10.05;5.20;;;;;;;12.77;83.00;100212.31;5027947;28;20037;-70
2023/04/30 00:23:36;;;;;;;8.52;4.88;;;;;;;12.91;81.50;100214.31;5027823;28;20423;-69
2023/04/30 00:26:01;;;;;;;10.60;5.68;;;;;;;13.03;79.16;100214.59;5027887;28;20045;-70
2023/04/30 00:28:27;;;;;;;9.77;5.18;;;;;;;13.16;80.73;100222.66;5027842;28;20045;-70
2023/04/30 00:30:52;;;;;;;9.52;4.97;;;;;;;13.19;82.28;100228.78;5027963;28;20073;-69
2023/04/30 00:33:18;;;;;;;8.50;5.63;;;;;;;13.23;82.91;100229.72;5027561;28;20156;-71
2023/04/30 00:35:43;;;;;;;10.43;5.88;;;;;;;13.18;82.07;100236.53;5027737;28;20069;-70
2023/04/30 00:38:09;;;;;;;16.65;6.93;;;;;;;12.99;85.73;100232.66;5027745;28;20037;-70
2023/04/30 00:40:35;;;;;;;12.43;6.40;;;;;;;12.51;89.76;100201.31;5027830;28;20569;-68
2023/04/30 00:43:00;;;;;;;13.52;6.80;;;;;;;12.44;90.99;100207.16;5030411;28;20065;-70
2023/04/30 00:45:26;;;;;;;9.73;6.25;;;;;;;12.55;93.45;100247.16;5030306;28;20456;-69
2023/04/30 00:47:51;;;;;;;9.13;6.30;;;;;;;12.36;94.67;100242.34;5030498;28;20028;-70
2023/04/30 00:50:17;;;;;;;12.05;5.80;;;;;;;12.48;94.62;100252.13;5030547;28;20021;-70
2023/04/30 00:52:43;;;;;;;10.35;5.43;;;;;;;12.21;93.09;100197.13;5030428;28;20029;-68
2023/04/30 00:55:12;;;;;;;12.32;5.82;;;;;;;12.48;92.82;100247.81;5030363;28;20026;-70
2023/04/30 00:57:39;;;;;;;12.80;5.72;;;;;;;12.28;93.61;100239.56;5030415;28;20065;-72
2023/04/30 01:00:10;;;;;;;8.93;5.53;;;;;;;12.10;94.29;100234.75;5029920;28;20480;-71
2023/04/30 01:02:39;;;;;;;8.60;5.57;;;;;;;11.76;96.14;100232.09;5031909;28;20676;-71
2023/04/30 01:05:06;;;;;;;9.48;6.15;;;;;;;11.79;96.66;100239.06;5033904;28;20592;-71
2023/04/30 01:07:33;;;;;;;7.82;5.50;;;;;;;11.41;96.19;100211.25;5048396;28;20389;-68
2023/04/30 01:09:59;;;;;;;9.80;5.47;;;;;;;11.53;96.12;100223.69;5048187;28;20033;-67
2023/04/30 01:12:50;;;;;;;10.02;5.18;;;;;;;11.56;96.20;100238.41;5032585;28;20022;-68
2023/04/30 01:15:33;;;;;;;8.13;5.18;;;;;;;11.62;96.22;100247.19;5033561;28;20029;-70
2023/04/30 01:18:11;;;;;;;9.93;5.68;;;;;;;11.69;96.86;100240.50;5033838;28;20033;-68
2023/04/30 01:20:43;;;;;;;7.28;5.68;;;;;;;11.43;96.05;100175.13;5033697;28;20109;-70
2023/04/30 01:23:35;;;;;;;11.27;5.90;;;;;;;11.88;95.15;100233.28;5033782;28;20052;-71
2023/04/30 01:26:14;;;;;;;10.63;5.55;;;;;;;12.01;93.00;100222.44;5032252;28;20037;-68
2023/04/30 01:28:43;;;;;;;11.50;5.40;;;;;;;12.11;91.76;100223.56;5033393;28;20021;-69
2023/04/30 01:31:18;;;;;;;8.07;5.63;;;;;;;12.16;91.03;100219.38;5032379;28;20472;-71
2023/04/30 01:33:43;;;;;;;10.70;5.15;;;;;;;12.30;93.00;100224.94;5033379;28;20077;-70
2023/04/30 01:36:32;;;;;;;8.30;5.22;;;;;;;12.36;93.61;100227.69;5033316;28;20072;-70
2023/04/30 01:39:05;;;;;;;8.05;5.30;;;;;;;11.50;93.95;100083.97;5032989;28;20050;-70
2023/04/30 01:41:36;;;;;;;9.88;5.85;;;;;;;12.28;93.40;100214.53;5033577;28;20033;-71
2023/04/30 01:44:20;;;;;;;8.95;5.63;;;;;;;12.39;92.86;100217.41;5033621;28;20075;-70
2023/04/30 01:46:55;;;;;;;13.25;5.30;;;;;;;12.43;90.79;100221.81;5033179;28;20030;-67
2023/04/30 01:49:41;;;;;;;9.02;5.82;;;;;;;12.41;89.96;100220.91;5033223;28;20036;-68
2023/04/30 01:52:40;;;;;;;8.43;5.63;;;;;;;12.18;89.02;100219.44;5033129;28;20029;-71
2023/04/30 01:55:06;;;;;;;12.30;5.65;;;;;;;12.19;88.07;100226.38;5010651;28;20043;-70
2023/04/30 01:57:51;;;;;;;6.97;5.07;;;;;;;12.07;88.55;100229.50;5010863;28;20095;-67
2023/04/30 02:00:17;;;;;;;8.55;5.13;;;;;;;12.08;88.73;100232.13;5010815;28;20095;-69
2023/04/30 02:02:42;;;;;;;9.98;5.40;;;;;;;12.04;90.03;100209.59;5010606;28;20046;-67
2023/04/30 02:05:08;;;;;;;8.80;5.80;;;;;;;12.10;89.13;100212.34;5010419;28;20067;-71
2023/04/30 02:07:39;;;;;;;8.75;6.00;;;;;;;11.95;88.26;100183.44;5010370;28;20536;-68
2023/04/30 02:10:06;;;;;;;10.10;6.68;;;;;;;12.11;88.19;100215.81;5010445;28;20091;-70
2023/04/30 02:12:31;;;;;;;10.18;7.20;;;;;;;12.12;88.50;100218.44;5010385;28;20041;-70
2023/04/30 02:14:57;;;;;;;13.43;9.10;;;;;;;11.90;86.75;100167.81;5009355;28;20516;-68
2023/04/30 02:17:22;;;;;;;15.57;10.07;;;;;;;11.97;87.18;100205.09;5010371;28;20523;-69
2023/04/30 02:19:47;;;;;;;19.35;10.82;;;;;;;11.96;87.67;100224.91;5010239;28;20053;-72
2023/04/30 02:22:13;;;;;;;16.70;10.20;;;;;;;11.86;87.57;100193.53;5010169;28;20029;-68
2023/04/30 02:24:38;;;;;;;14.35;10.90;;;;;;;12.10;88.29;100227.88;5010003;28;20049;-71
2023/04/30 02:27:04;;;;;;;15.48;10.13;;;;;;;12.13;87.77;100227.09;4993677;28;20045;-75
2023/04/30 02:29:29;;;;;;;17.27;10.80;;;;;;;12.20;87.54;100225.50;5010308;28;20498;-71
2023/04/30 02:31:57;;;;;;;13.15;10.30;;;;;;;12.12;87.61;100225.31;5020654;28;20495;-69
2023/04/30 02:34:23;;;;;;;19.60;11.63;;;;;;;11.96;89.07;100231.78;5032414;28;20485;-67
2023/04/30 02:36:48;;;;;;;15.50;11.65;;;;;;;11.98;90.63;100224.97;5032134;28;20124;-66
2023/04/30 02:39:14;;;;;;;15.32;10.70;;;;;;;12.00;89.54;100228.47;5032006;28;20041;-66
2023/04/30 02:41:39;;;;;;;18.27;11.27;;;;;;;12.06;89.49;100226.06;5032229;28;20051;-71
2023/04/30 02:44:04;;;;;;;15.02;11.93;;;;;;;12.06;89.85;100230.31;5032323;28;20037;-73
2023/04/30 02:46:30;;;;;;;13.70;11.32;;;;;;;12.04;89.98;100235.47;5032193;28;20038;-68
2023/04/30 02:48:55;;;;;;;15.02;11.27;;;;;;;12.07;90.00;100232.94;5032257;28;20108;-70
2023/04/30 02:51:21;;;;;;;13.27;10.95;;;;;;;12.09;90.33;100233.88;5031985;28;20475;-70
2023/04/30 02:53:46;;;;;;;14.63;11.23;;;;;;;11.90;90.80;100200.53;5032059;28;20025;-67
2023/04/30 02:56:11;;;;;;;18.60;11.30;;;;;;;12.12;91.57;100233.09;5031649;28;20479;-72
2023/04/30 02:58:37;;;;;;;17.10;11.50;;;;;;;11.88;92.57;100239.31;5031975;28;20029;-70
2023/04/30 03:01:02;;;;;;;17.23;11.50;;;;;;;11.81;93.70;100237.38;5031542;28;20483;-67
2023/04/30 03:03:28;;;;;;;15.00;10.23;;;;;;;11.80;94.34;100233.03;5031992;28;20053;-70
2023/04/30 03:05:55;;;;;;;14.93;11.07;;;;;;;11.77;94.52;100218.31;5022001;28;20022;-70
2023/04/30 03:08:21;;;;;;;15.25;10.55;;;;;;;11.90;94.31;100229.00;5012243;28;20034;-71
2023/04/30 03:10:46;;;;;;;15.18;10.57;;;;;;;11.95;94.27;100230.00;5012032;28;20033;-70
2023/04/30 03:13:11;;;;;;;15.63;10.70;;;;;;;11.97;94.84;100225.78;5011983;28;20467;-71
2023/04/30 03:15:37;;;;;;;13.13;10.60;;;;;;;11.79;94.88;100189.94;5011988;28;20473;-67
2023/04/30 03:18:03;;;;;;;15.65;10.25;;;;;;;12.05;94.22;100232.06;5011539;28;20414;-70
2023/04/30 03:20:28;;;;;;;15.13;10.07;;;;;;;11.89;93.82;100197.09;5011631;28;20026;-69
2023/04/30 03:22:53;;;;;;;14.13;10.60;;;;;;;12.07;93.81;100225.19;5011543;28;20385;-68
2023/04/30 03:25:19;;;;;;;15.48;9.70;;;;;;;12.03;93.93;100233.72;5011476;28;20030;-70
2023/04/30 03:27:44;;;;;;;14.52;9.70;;;;;;;11.84;94.99;100232.31;5011811;28;20022;-71
2023/04/30 03:30:10;;;;;;;13.35;9.27;;;;;;;11.66;95.76;100230.06;5011714;28;20022;-67
2023/04/30 03:32:35;;;;;;;15.32;9.55;;;;;;;11.63;95.70;100236.03;5011531;28;20036;-68
2023/04/30 03:35:01;;;;;;;12.63;9.30;;;;;;;11.43;97.22;100199.25;5011422;28;20060;-70
2023/04/30 03:37:26;;;;;;;12.20;8.00;;;;;;;11.44;97.10;100205.28;5011466;28;20456;-67
2023/04/30 03:39:51;;;;;;;14.45;8.85;;;;;;;11.55;97.66;100239.22;5011486;28;20037;-67
2023/04/30 03:42:17;;;;;;;14.82;8.38;;;;;;;11.39;98.63;100240.47;5011142;28;20029;-68
2023/04/30 03:44:42;;;;;;;11.55;8.40;;;;;;;11.36;98.23;100248.16;5011494;28;20441;-67
2023/04/30 03:47:08;;;;;;;13.73;8.95;;;;;;;11.50;98.70;100254.59;5011195;28;20026;-72
2023/04/30 03:49:33;;;;;;;19.15;9.75;;;;;;;11.60;97.10;100255.75;5011192;28;20030;-71
2023/04/30 03:51:58;;;;;;;19.48;9.20;;;;;;;11.71;95.34;100259.50;5011171;28;20030;-70
2023/04/30 03:54:24;;;;;;;15.65;9.25;;;;;;;11.60;91.80;100238.53;5010915;28;20033;-70
2023/04/30 03:56:49;;;;;;;14.55;9.70;;;;;;;11.72;91.12;100266.44;5024037;28;20029;-68
2023/04/30 03:59:15;;;;;;;12.93;8.95;;;;;;;11.69;90.41;100258.59;5018639;28;20138;-71
2023/04/30 04:01:40;;;;;;;25.10;10.00;;;;;;;11.66;91.08;100258.50;5021613;28;20028;-72
2023/04/30 04:04:06;;;;;;;15.50;10.20;;;;;;;11.61;91.66;100249.75;5012949;28;20029;-71
2023/04/30 04:06:32;;;;;;;17.33;9.90;;;;;;;11.47;91.75;100247.63;5026193;28;20470;-70
2023/04/30 04:08:57;;;;;;;16.85;9.88;;;;;;;11.25;95.38;100261.63;5030370;28;20041;-69
2023/04/30 04:11:23;;;;;;;15.75;10.73;;;;;;;11.27;95.92;100254.78;5028336;28;20407;-71
2023/04/30 04:13:48;;;;;;;14.38;10.93;;;;;;;11.07;94.57;100215.41;5028405;28;20041;-68
2023/04/30 04:16:14;;;;;;;14.32;10.52;;;;;;;11.29;94.21;100263.47;5030805;28;20474;-67
2023/04/30 04:18:39;;;;;;;14.93;10.32;;;;;;;11.19;94.83;100247.63;5030432;28;20662;-70
2023/04/30 04:21:05;;;;;;;17.08;10.88;;;;;;;11.31;95.19;100272.16;5030233;28;20029;-72
2023/04/30 04:23:30;;;;;;;17.20;11.13;;;;;;;11.03;95.08;100216.16;5030447;28;20446;-68
2023/04/30 04:25:56;;;;;;;15.65;10.90;;;;;;;11.36;94.79;100266.25;5030577;28;20030;-73
2023/04/30 04:28:21;;;;;;;14.93;11.38;;;;;;;11.10;93.39;100224.97;5030597;28;20109;-68
2023/04/30 04:30:48;;;;;;;18.63;12.05;;;;;;;11.31;94.14;100266.09;5029674;28;20105;-75
2023/04/30 04:33:13;;;;;;;16.95;11.85;;;;;;;11.47;94.35;100276.06;5023370;28;20054;-70
2023/04/30 04:35:39;;;;;;;19.55;12.05;;;;;;;11.33;93.62;100264.44;5010661;28;20104;-71
2023/04/30 04:38:05;;;;;;;14.00;10.75;;;;;;;11.34;92.64;100273.97;5013082;28;20483;-73
2023/04/30 04:40:30;;;;;;;13.52;11.00;;;;;;;11.27;93.00;100279.75;5013607;28;20041;-71
2023/04/30 04:42:55;;;;;;;14.48;11.23;;;;;;;11.14;94.59;100278.47;5014471;28;20400;-69
2023/04/30 04:45:21;;;;;;;14.50;10.80;;;;;;;11.13;95.02;100282.78;5014780;28;20026;-71
2023/04/30 04:47:47;;;;;;;13.73;11.20;;;;;;;11.05;95.19;100281.66;5014981;28;20034;-68
2023/04/30 04:50:13;;;;;;;18.05;13.02;;;;;;;11.17;95.85;100281.19;5023937;28;20044;-68
2023/04/30 04:52:38;;;;;;;18.23;11.40;;;;;;;10.93;94.19;100238.25;5034534;28;20615;-74
2023/04/30 04:55:04;;;;;;;17.23;11.45;;;;;;;11.19;94.18;100279.53;5034192;28;20029;-71
2023/04/30 04:57:30;;;;;;;16.33;11.63;;;;;;;11.20;94.17;100272.63;5034295;28;20103;-68
2023/04/30 04:59:56;;;;;;;18.63;11.18;;;;;;;11.32;94.06;100289.38;5034487;28;20025;-71
2023/04/30 05:02:22;;;;;;;17.20;11.43;;;;;;;11.27;93.95;100292.69;5033707;28;20033;-71
2023/04/30 05:04:49;;;;;;;15.98;11.55;;;;;;;11.16;94.17;100282.91;5031307;28;20162;-69
2023/04/30 05:07:18;;;;;;;16.42;11.45;;;;;;;11.20;94.88;100277.81;5025306;28;20037;-74
2023/04/30 05:09:45;;;;;;;17.27;11.55;;;;;;;11.16;95.36;100279.41;5030653;28;20116;-73
2023/04/30 05:12:11;;;;;;;14.40;11.15;;;;;;;11.24;95.37;100289.97;5033125;28;20427;-70
2023/04/30 05:14:36;;;;;;;15.77;11.35;;;;;;;11.24;95.85;100290.88;5032291;28;20025;-72
2023/04/30 05:17:02;;;;;;;16.83;11.50;;;;;;;11.28;96.72;100295.31;5033667;28;20171;-71
2023/04/30 05:19:27;;;;;;;17.20;11.88;;;;;;;11.00;96.63;100244.47;5033462;28;20036;-68
2023/04/30 05:21:53;;;;;;;22.23;12.00;;;;;;;11.01;97.10;100251.38;5032368;28;20018;-71
2023/04/30 05:24:18;;;;;;;17.25;11.60;;;;;;;11.02;97.38;100254.88;5031151;28;20104;-72
2023/04/30 05:26:43;;;;;;;18.38;11.95;;;;;;;11.25;96.99;100302.97;5029991;28;20026;-71
2023/04/30 05:29:10;;;;;;;17.33;12.57;;;;;;;11.05;96.88;100266.16;5030260;28;20017;-75
2023/04/30 05:31:36;;;;;;;15.57;11.80;;;;;;;10.98;98.69;100251.31;5032910;28;20095;-74
2023/04/30 05:34:01;;;;;;;16.05;12.55;;;;;;;11.27;98.55;100306.47;5031127;28;20049;-71
2023/04/30 05:36:28;;;;;;;16.60;11.98;;;;;;;11.20;97.22;100299.34;5032088;28;20108;-71
2023/04/30 05:38:53;;;;;;;16.25;12.32;;;;;;;11.20;98.33;100283.84;5033009;28;20022;-69
2023/04/30 05:41:20;;;;;;;17.92;12.57;;;;;;;11.39;98.02;100313.75;5031340;28;20403;-69
2023/04/30 05:43:45;;;;;;;20.10;13.40;;;;;;;11.12;98.04;100268.09;5033307;28;20459;-67
2023/04/30 05:46:11;;;;;;;20.83;13.18;;;;;;;11.29;97.05;100309.09;5031041;28;20042;-70
2023/04/30 05:48:37;;;;;;;17.70;12.63;;;;;;;11.16;97.13;100300.97;5032455;28;20581;-72
2023/04/30 05:51:05;;;;;;;16.17;12.85;;;;;;;11.12;97.77;100311.16;5032451;28;20395;-67
2023/04/30 05:53:31;;;;;;;15.43;12.32;;;;;;;11.04;99.20;100312.59;5031171;28;20463;-70
2023/04/30 05:55:56;;;;;;;16.50;12.50;;;;;;;11.05;99.88;100317.81;5032425;28;20047;-72
2023/04/30 05:58:22;;;;;;;17.45;14.07;;;;;;;10.98;99.60;100310.72;5032932;28;20387;-72
2023/04/30 06:00:51;;;;;;;19.27;13.77;;;;;;;10.95;99.71;100313.19;5031293;28;20480;-70
2023/04/30 06:03:19;;;;;;;18.88;13.20;;;;;;;10.86;100.00;100315.47;5032558;28;20029;-70
2023/04/30 06:05:47;;;;;;;19.00;13.35;;;;;;;10.54;100.00;100273.97;5032496;28;20091;-70
2023/04/30 06:08:13;;;;;;;19.80;13.25;;;;;;;10.88;100.00;100318.97;5029985;28;20101;-69
2023/04/30 06:10:38;;;;;;;16.73;13.00;;;;;;;10.96;100.00;100318.41;5030487;28;20387;-69
2023/04/30 06:13:05;;;;;;;23.42;14.05;;;;;;;11.06;100.00;100327.31;5028884;28;20024;-70
2023/04/30 06:15:31;;;;;;;22.20;13.43;;;;;;;11.21;99.73;100326.06;5030009;28;20109;-69
2023/04/30 06:17:56;;;;;;;16.50;13.02;;;;;;;11.26;99.56;100321.94;5032136;28;20164;-69
2023/04/30 06:20:22;;;;;;;18.10;13.23;;;;;;;11.28;99.62;100315.97;5032319;28;20025;-70
2023/04/30 06:22:47;;;;;;;19.88;13.45;;;;;;;11.34;99.90;100317.91;5030989;28;20037;-70
2023/04/30 06:25:12;;;;;;;19.63;13.52;;;;;;;11.35;100.00;100323.94;5031841;28;20025;-71
2023/04/30 06:27:38;;;;;;;20.27;14.07;;;;;;;11.42;100.00;100316.41;5032014;28;20106;-68
2023/04/30 06:30:04;;;;;;;20.42;13.30;;;;;;;11.45;100.00;100311.34;5027441;28;20057;-71
2023/04/30 06:32:30;;;;;;;21.75;13.95;;;;;;;11.46;100.00;100312.22;5031707;28;20119;-71
2023/04/30 06:34:55;;;;;;;22.17;13.25;;;;;;;11.40;100.00;100314.59;5031293;28;20420;-71
2023/04/30 06:37:20;;;;;;;18.77;13.25;;;;;;;11.44;100.00;100312.16;5032051;28;20033;-68
2023/04/30 06:39:46;;;;;;;20.70;14.02;;;;;;;11.37;100.00;100317.97;5031551;28;20029;-68
2023/04/30 06:42:11;;;;;;;19.52;12.65;;;;;;;11.35;100.00;100305.84;5032012;28;20025;-67
2023/04/30 06:44:37;;;;;;;19.13;13.10;;;;;;;11.54;100.00;100321.09;5031347;28;20108;-72
2023/04/30 06:47:02;;;;;;;17.52;13.52;;;;;;;11.62;100.00;100326.50;5031768;28;20438;-68
2023/04/30 06:49:28;;;;;;;19.38;13.07;;;;;;;11.56;100.00;100327.16;5031750;28;20029;-70
2023/04/30 06:51:55;;;;;;;20.05;11.63;;;;;;;11.55;99.24;100311.63;5031795;28;20039;-72
2023/04/30 06:54:21;;;;;;;16.73;12.02;;;;;;;11.59;99.79;100322.09;5031542;28;20092;-71
2023/04/30 06:56:47;;;;;;;20.88;12.57;;;;;;;11.65;100.00;100321.41;5031769;28;20108;-71
2023/04/30 06:59:12;;;;;;;21.80;17.00;;;;;;;11.78;98.17;100328.69;5031259;28;20113;-70
2023/04/30 07:01:38;;;;;;;38.10;24.05;;;;;;;11.57;97.30;100268.59;5031034;28;20108;-73
2023/04/30 07:04:03;;;;;;;18.63;12.02;;;;;;;11.84;94.87;100328.00;5031303;28;20121;-70
2023/04/30 07:06:29;;;;;;;26.17;18.52;;;;;;;11.89;96.55;100325.56;5031423;28;20032;-69
2023/04/30 07:08:54;;;;;;;18.83;11.52;;;;;;;11.96;94.57;100323.22;5031213;28;20025;-73
2023/04/30 07:11:20;;;;;;;15.73;10.63;;;;;;;12.18;92.98;100334.19;5031561;28;20605;-71
2023/04/30 07:13:45;;;;;;;13.13;10.20;;;;;;;12.07;93.22;100304.53;5030842;28;20022;-70
2023/04/30 07:16:11;;;;;;;14.75;10.07;;;;;;;12.18;92.77;100322.97;5031095;28;20040;-73
2023/04/30 07:18:37;;;;;;;16.73;11.35;;;;;;;12.24;93.68;100330.91;5030852;28;20033;-70
2023/04/30 07:21:02;;;;;;;12.75;9.57;;;;;;;12.39;92.62;100333.91;5029746;28;20125;-69
2023/04/30 07:23:28;;;;;;;14.77;10.52;;;;;;;12.42;92.66;100333.09;5031181;28;20025;-70
2023/04/30 07:25:53;;;;;;;15.75;9.63;;;;;;;12.49;88.58;100327.25;5031331;28;20029;-70
2023/04/30 07:28:19;;;;;;;15.85;9.48;;;;;;;12.56;87.80;100325.69;5030943;28;20025;-68
2023/04/30 07:30:44;;;;;;;14.98;8.85;;;;;;;12.37;87.88;100280.34;5030525;28;20030;-69
2023/04/30 07:33:11;;;;;;;12.32;8.77;;;;;;;12.75;89.18;100321.91;5030733;28;20058;-67
2023/04/30 07:35:37;;;;;;;12.02;9.38;;;;;;;12.90;89.33;100331.78;5030686;28;20036;-73
2023/04/30 07:38:04;;;;;;;12.25;9.77;;;;;;;13.06;87.19;100320.03;5030934;28;20025;-68
2023/04/30 07:40:30;;;;;;;12.95;8.95;;;;;;;13.10;87.67;100322.75;5030954;28;20033;-71
2023/04/30 07:42:55;;;;;;;12.23;8.45;;;;;;;13.31;85.01;100321.53;5030781;28;20128;-72
2023/04/30 07:45:20;;;;;;;18.90;9.52;;;;;;;13.55;84.07;100322.97;5030460;28;20029;-68
2023/04/30 07:47:47;;;;;;;12.13;8.52;;;;;;;13.61;83.02;100317.91;5030768;28;20036;-70
2023/04/30 07:50:13;;;;;;;11.18;8.18;;;;;;;13.66;83.75;100311.09;5030546;28;20535;-69
2023/04/30 07:52:40;;;;;;;12.13;7.65;;;;;;;13.90;81.74;100320.25;5030871;28;20036;-72
2023/04/30 07:55:05;;;;;;;13.60;8.77;;;;;;;14.05;83.14;100323.16;5030651;28;20136;-71
2023/04/30 07:57:31;;;;;;;12.60;8.23;;;;;;;14.05;82.50;100312.78;5029855;28;20462;-70
2023/04/30 07:59:56;;;;;;;9.25;7.72;;;;;;;14.17;80.02;100312.16;5030095;28;20074;-68
2023/04/30 08:02:22;;;;;;;10.55;7.93;;;;;;;14.36;79.71;100326.34;5030489;28;20074;-67
2023/04/30 08:04:48;;;;;;;10.85;6.28;;;;;;;14.34;78.32;100330.66;5030557;28;20487;-70
2023/04/30 08:07:16;;;;;;;8.15;5.80;;;;;;;14.22;76.77;100326.09;5030396;28;20403;-69
2023/04/30 08:09:42;;;;;;;12.10;7.32;;;;;;;14.21;79.79;100323.47;5030332;28;20021;-68
2023/04/30 08:12:08;;;;;;;10.30;7.43;;;;;;;14.13;80.52;100292.19;5029320;28;20032;-70
2023/04/30 08:14:34;;;;;;;11.68;6.70;;;;;;;14.35;80.49;100323.75;5030033;28;20040;-70
2023/04/30 08:17:01;;;;;;;9.70;6.60;;;;;;;14.47;78.65;100310.13;5030230;28;20017;-70
2023/04/30 08:19:26;;;;;;;9.18;6.32;;;;;;;14.42;76.92;100290.97;5027690;28;20044;-69
2023/04/30 08:21:52;;;;;;;10.02;7.03;;;;;;;14.70;78.44;100313.16;5030593;28;20033;-69
2023/04/30 08:24:18;;;;;;;10.13;6.47;;;;;;;14.86;78.25;100322.09;5029785;28;20516;-69
2023/04/30 08:26:43;;;;;;;8.90;5.70;;;;;;;14.87;75.80;100314.31;5030055;28;20535;-71
2023/04/30 08:29:08;;;;;;;6.95;5.32;;;;;;;14.84;72.49;100316.88;5029504;28;20033;-73
2023/04/30 08:31:34;;;;;;;9.13;5.90;;;;;;;14.78;72.96;100308.97;5030330;28;20584;-68
2023/04/30 08:34:00;;;;;;;10.05;5.97;;;;;;;14.91;73.01;100307.44;5029798;28;20053;-75
2023/04/30 08:36:26;;;;;;;8.75;5.57;;;;;;;15.09;73.75;100308.59;5030162;28;20041;-69
2023/04/30 08:38:52;;;;;;;9.43;6.07;;;;;;;15.22;73.64;100294.94;5030170;28;20499;-69
2023/04/30 08:41:21;;;;;;;22.20;13.70;;;;;;;15.46;73.92;100304.81;5029917;28;20022;-72
2023/04/30 08:43:51;;;;;;;8.93;6.40;;;;;;;15.63;70.21;100304.19;5029606;28;20032;-68
2023/04/30 08:46:17;;;;;;;12.38;7.70;;;;;;;15.64;71.61;100312.00;5030168;28;20046;-71
2023/04/30 08:48:43;;;;;;;9.68;6.22;;;;;;;15.80;67.45;100312.19;5029952;28;20047;-72
2023/04/30 08:51:09;;;;;;;9.48;6.47;;;;;;;15.81;68.41;100298.34;5030044;28;20026;-71
2023/04/30 08:53:39;;;;;;;13.48;9.32;;;;;;;15.87;69.05;100303.66;5030175;28;20491;-69
2023/04/30 08:56:05;;;;;;;9.95;7.35;;;;;;;16.01;69.33;100301.22;5029846;28;20030;-70
2023/04/30 08:58:32;;;;;;;13.32;7.28;;;;;;;16.05;69.65;100305.63;5029671;28;20026;-67
2023/04/30 09:00:58;;;;;;;10.15;6.07;;;;;;;15.77;68.77;100255.78;5029635;28;20037;-71
2023/04/30 09:03:25;;;;;;;10.02;6.60;;;;;;;15.92;69.51;100295.91;5029718;28;20455;-71
2023/04/30 09:05:51;;;;;;;8.98;5.93;;;;;;;15.87;71.06;100289.78;5027114;28;20073;-70
2023/04/30 09:08:18;;;;;;;12.68;6.80;;;;;;;16.04;68.60;100282.16;5026803;28;20514;-70
2023/04/30 09:10:44;;;;;;;11.82;7.00;;;;;;;16.33;67.84;100293.75;5034718;28;20037;-71
2023/04/30 09:13:10;;;;;;;8.98;5.40;;;;;;;16.53;66.29;100284.41;5027075;28;20396;-70
2023/04/30 09:15:40;;;;;;;9.48;5.65;;;;;;;16.57;65.49;100274.00;5027227;28;20036;-69
2023/04/30 09:18:10;;;;;;;7.30;4.97;;;;;;;16.73;66.21;100272.41;5027305;28;20424;-71
2023/04/30 09:20:36;;;;;;;8.93;6.05;;;;;;;16.88;68.07;100271.69;5027588;28;20061;-70
2023/04/30 09:23:09;;;;;;;7.30;5.03;;;;;;;17.11;65.48;100269.28;5027926;28;20084;-70
2023/04/30 09:25:40;;;;;;;8.95;5.15;;;;;;;17.32;62.88;100262.47;5031287;28;20562;-71
2023/04/30 09:28:12;;;;;;;7.80;3.85;;;;;;;17.54;58.36;100253.00;5031113;28;20033;-71
2023/04/30 09:30:41;;;;;;;9.18;5.50;;;;;;;17.45;61.33;100240.78;5031486;28;20554;-68
2023/04/30 09:33:07;;;;;;;8.73;4.40;;;;;;;17.61;59.75;100233.88;5031130;28;20563;-70
2023/04/30 09:35:37;;;;;;;6.88;4.03;;;;;;;17.81;61.00;100247.88;5030909;28;20268;-70
2023/04/30 09:38:03;;;;;;;7.57;4.65;;;;;;;18.01;58.28;100237.56;5030943;28;20021;-71
2023/04/30 09:40:46;;;;;;;7.95;3.50;;;;;;;18.17;55.38;100228.00;5030931;28;20049;-74
2023/04/30 09:43:12;;;;;;;6.75;4.40;;;;;;;18.26;55.33;100228.88;5031957;28;20029;-70
2023/04/30 09:45:46;;;;;;;7.28;4.93;;;;;;;18.31;53.04;100196.69;5033568;28;20107;-71
2023/04/30 09:48:16;;;;;;;5.85;3.28;;;;;;;18.45;53.37;100210.59;5033474;28;20684;-72
2023/04/30 09:50:42;;;;;;;6.78;3.55;;;;;;;18.61;53.15;100223.69;5033151;28;20026;-70
2023/04/30 09:53:09;;;;;;;9.10;4.28;;;;;;;18.79;53.61;100210.63;5033336;28;20374;-70
2023/04/30 09:55:35;;;;;;;5.68;3.80;;;;;;;18.82;54.59;100220.19;5033174;28;20038;-75
2023/04/30 09:58:06;;;;;;;10.30;4.25;;;;;;;18.98;55.76;100214.09;5033467;28;20057;-70
2023/04/30 10:00:35;;;;;;;6.97;3.65;;;;;;;19.19;54.93;100215.81;5033254;28;20038;-70
2023/04/30 10:03:07;;;;;;;6.30;3.15;;;;;;;19.34;54.78;100211.38;5033077;28;20497;-69
2023/04/30 10:05:36;;;;;;;6.10;4.00;;;;;;;19.16;53.18;100179.16;5033116;28;20461;-68
2023/04/30 10:08:03;;;;;;;;;;;;;;;19.53;51.63;100206.97;5033703;28;20037;-68
2023/04/30 10:10:31;;;;;;;7.03;3.40;;;;;;;19.59;52.92;100204.31;5033118;28;20375;-70
2023/04/30 10:13:02;;;;;;;5.22;3.35;;;;;;;19.72;54.43;100199.88;5032870;28;20068;-70
2023/04/30 10:15:35;;;;;;;6.50;3.28;;;;;;;19.80;52.24;100208.59;5032706;28;20040;-71
2023/04/30 10:18:16;;;;;;;8.43;3.42;;;;;;;19.93;51.93;100190.22;5033069;28;20170;-72
2023/04/30 10:20:46;;;;;;;7.78;3.30;;;;;;;20.24;50.96;100196.09;5031447;28;20028;-68
2023/04/30 10:23:12;;;;;;;6.43;3.00;;;;;;;20.43;50.56;100195.97;5032995;28;20029;-71
2023/04/30 10:25:39;;;;;;;4.38;3.25;;;;;;;20.41;50.20;100190.75;5032755;28;20029;-70
2023/04/30 10:28:07;;;;;;;9.88;3.55;;;;;;;20.33;51.36;100198.66;5032722;28;20037;-70
2023/04/30 10:30:34;;;;;;;6.20;3.30;;;;;;;20.24;51.15;100185.63;5032341;28;20033;-71
2023/04/30 10:33:11;;;;;;;6.75;3.33;;;;;;;20.66;50.69;100193.13;5032569;28;20131;-70
2023/04/30 10:36:11;;;;;;;7.03;3.08;;;;;;;20.68;49.41;100181.75;5031916;28;20037;-72
2023/04/30 10:38:37;;;;;;;4.50;2.95;;;;;;;20.45;52.69;100137.38;5010329;28;20041;-67
2023/04/30 10:41:05;;;;;;;5.40;3.10;;;;;;;20.89;49.22;100173.72;5009928;28;20045;-70
2023/04/30 10:43:32;;;;;;;6.60;2.95;;;;;;;21.05;46.28;100175.31;5010115;28;20580;-70
2023/04/30 10:45:58;;;;;;;5.53;2.60;;;;;;;21.33;47.11;100173.22;5010128;28;20038;-68
2023/04/30 10:48:24;;;;;;;5.18;3.28;;;;;;;20.92;46.51;100143.09;5009819;28;20448;-67
2023/04/30 10:50:58;;;;;;;6.97;3.20;;;;;;;21.19;45.81;100159.38;5009939;28;20030;-71
2023/04/30 10:53:26;;;;;;;7.43;2.83;;;;;;;21.52;46.74;100165.13;5010107;28;20705;-72
2023/04/30 10:55:56;;;;;;;4.80;2.55;;;;;;;21.28;46.71;100124.28;5009837;28;20500;-70
2023/04/30 10:58:30;;;;;;;5.18;2.70;;;;;;;20.84;47.32;100129.16;5009869;28;20034;-67
2023/04/30 11:01:03;;;;;;;7.15;2.63;;;;;;;20.94;47.84;100162.28;5009452;28;20084;-69
2023/04/30 11:03:31;;;;;;;5.47;3.10;;;;;;;21.01;50.33;100157.84;5009713;28;20393;-70
2023/04/30 11:06:03;;;;;;;3.33;2.45;;;;;;;21.21;46.13;100156.75;4993125;28;20037;-68
2023/04/30 11:08:36;;;;;;;5.47;2.63;;;;;;;21.28;47.60;100158.41;5009530;28;20459;-71
2023/04/30 11:11:03;;;;;;;3.90;2.50;;;;;;;21.17;45.94;100153.28;5009568;28;20125;-69
2023/04/30 11:13:38;;;;;;;4.10;2.33;;;;;;;21.46;46.04;100158.19;5009391;28;20030;-70
2023/04/30 11:16:03;;;;;;;5.57;2.80;;;;;;;21.06;44.08;100155.16;5030810;28;20496;-70
2023/04/30 11:18:30;;;;;;;5.75;2.97;;;;;;;20.35;45.61;100147.09;5028910;28;20040;-67